createdAt,value
2018-02-21T00:01:14.313Z,-2.50
2018-02-21T00:03:40.701Z,-2.50
2018-02-21T00:06:07.106Z,-2.50
2018-02-21T00:08:33.501Z,-2.50
2018-02-21T00:10:59.918Z,-2.50
2018-02-21T00:13:26.313Z,-2.40
2018-02-21T00:15:52.728Z,-2.40
2018-02-21T00:18:19.181Z,-2.50
2018-02-21T00:20:45.605Z,-2.50
2018-02-21T00:23:12.799Z,-2.50
2018-02-21T00:25:39.233Z,-2.60
2018-02-21T00:28:05.618Z,-2.50
2018-02-21T00:30:32.792Z,-2.50
2018-02-21T00:32:59.175Z,-2.60
2018-02-21T00:35:25.550Z,-2.50
2018-02-21T00:37:52.699Z,-2.40
2018-02-21T00:40:19.835Z,-2.40
2018-02-21T00:42:46.250Z,-2.40
2018-02-21T00:45:12.671Z,-2.40
2018-02-21T00:47:39.054Z,-2.40
2018-02-21T00:50:06.210Z,-2.30
2018-02-21T00:52:32.626Z,-2.40
2018-02-21T00:54:59.003Z,-2.40
2018-02-21T00:57:26.141Z,-2.40
2018-02-21T00:59:53.258Z,-2.40
2018-02-21T01:02:19.671Z,-2.40
2018-02-21T01:04:46.470Z,-2.40
2018-02-21T01:07:13.590Z,-2.40
2018-02-21T01:09:39.995Z,-2.40
2018-02-21T01:12:06.393Z,-2.40
2018-02-21T01:14:33.534Z,-2.30
2018-02-21T01:17:00.677Z,-2.30
2018-02-21T01:19:27.053Z,-2.40
2018-02-21T01:21:53.456Z,-2.30
2018-02-21T01:24:20.601Z,-2.30
2018-02-21T01:26:47.026Z,-2.30
2018-02-21T01:29:14.162Z,-2.30
2018-02-21T01:31:40.533Z,-2.40
2018-02-21T01:34:07.679Z,-2.30
2018-02-21T01:36:34.795Z,-2.30
2018-02-21T01:39:02.186Z,-2.30
2018-02-21T01:41:29.301Z,-2.30
2018-02-21T01:43:55.699Z,-2.30
2018-02-21T01:46:22.126Z,-2.20
2018-02-21T01:48:48.509Z,-2.30
2018-02-21T01:51:15.734Z,-2.30
2018-02-21T01:53:42.814Z,-2.30
2018-02-21T01:56:09.215Z,-2.30
2018-02-21T01:58:35.631Z,-2.30
2018-02-21T02:01:02.003Z,-2.20
2018-02-21T02:03:28.397Z,-2.20
2018-02-21T02:05:54.776Z,-2.20
2018-02-21T02:08:21.190Z,-2.20
2018-02-21T02:10:47.609Z,-2.10
2018-02-21T02:13:13.987Z,-2.10
2018-02-21T02:15:40.442Z,-2.10
2018-02-21T02:18:07.571Z,-2.20
2018-02-21T02:20:33.983Z,-2.20
2018-02-21T02:23:00.414Z,-2.20
2018-02-21T02:25:26.803Z,-2.20
2018-02-21T02:27:54.005Z,-2.20
2018-02-21T02:30:20.542Z,-2.30
2018-02-21T02:32:46.966Z,-2.20
2018-02-21T02:35:13.345Z,-2.20
2018-02-21T02:37:39.753Z,-2.20
2018-02-21T02:40:06.161Z,-2.20
2018-02-21T02:42:32.558Z,-2.20
2018-02-21T02:44:59.691Z,-2.30
2018-02-21T02:47:26.874Z,-2.20
2018-02-21T02:49:53.282Z,-2.30
2018-02-21T02:52:19.493Z,-2.30
2018-02-21T02:54:45.897Z,-2.40
2018-02-21T02:57:12.274Z,-2.50
2018-02-21T02:59:39.408Z,-2.60
2018-02-21T03:02:05.817Z,-2.60
2018-02-21T03:04:32.209Z,-2.60
2018-02-21T03:06:59.368Z,-2.70
2018-02-21T03:09:26.491Z,-2.70
2018-02-21T03:11:52.897Z,-2.80
2018-02-21T03:14:19.289Z,-2.80
2018-02-21T03:16:46.416Z,-2.80
2018-02-21T03:19:12.827Z,-2.90
2018-02-21T03:21:39.202Z,-2.80
2018-02-21T03:24:06.373Z,-2.60
2018-02-21T03:26:32.781Z,-2.70
2018-02-21T03:28:59.909Z,-2.50
2018-02-21T03:31:26.322Z,-2.60
2018-02-21T03:33:52.749Z,-2.50
2018-02-21T03:36:19.154Z,-2.50
2018-02-21T03:38:46.289Z,-2.70
2018-02-21T03:41:13.411Z,-2.80
2018-02-21T03:43:39.812Z,-2.90
2018-02-21T03:46:06.209Z,-2.90
2018-02-21T03:48:33.354Z,-3.10
2018-02-21T03:50:59.750Z,-3.10
2018-02-21T03:53:26.132Z,-3.20
2018-02-21T03:55:53.310Z,-3.40
2018-02-21T03:58:19.692Z,-3.50
2018-02-21T04:00:46.090Z,-3.30
2018-02-21T04:03:12.490Z,-3.20
2018-02-21T04:05:39.613Z,-3.00
2018-02-21T04:08:06.031Z,-3.10
2018-02-21T04:10:32.428Z,-3.10
2018-02-21T04:12:58.830Z,-3.20
2018-02-21T04:15:26.025Z,-3.60
2018-02-21T04:17:52.396Z,-3.70
2018-02-21T04:20:18.857Z,-3.90
2018-02-21T04:25:19.801Z,-4.20
2018-02-21T04:27:46.209Z,-4.20
2018-02-21T04:30:12.587Z,-4.20
2018-02-21T04:32:39.739Z,-4.30
2018-02-21T04:35:06.709Z,-4.40
2018-02-21T04:37:33.125Z,-4.50
2018-02-21T04:40:00.301Z,-4.70
2018-02-21T04:42:26.673Z,-4.70
2018-02-21T04:44:53.074Z,-4.70
2018-02-21T04:47:19.446Z,-4.70
2018-02-21T04:49:45.854Z,-4.60
2018-02-21T04:52:12.239Z,-4.60
2018-02-21T04:54:45.439Z,-4.80
2018-02-21T05:10:36.337Z,-4.60
2018-02-21T05:13:03.470Z,-4.60
2018-02-21T05:15:30.043Z,-4.70
2018-02-21T05:17:56.447Z,-4.70
2018-02-21T05:20:22.889Z,-4.80
2018-02-21T05:22:51.789Z,-5.10
2018-02-21T05:25:19.174Z,-5.20
2018-02-21T05:27:46.236Z,-5.20
2018-02-21T05:30:12.653Z,-5.20
2018-02-21T05:32:39.100Z,-5.30
2018-02-21T05:35:05.504Z,-5.40
2018-02-21T05:37:32.712Z,-5.50
2018-02-21T05:39:59.141Z,-5.60
2018-02-21T05:42:25.369Z,-5.40
2018-02-21T05:44:51.569Z,-5.40
2018-02-21T05:47:17.919Z,-5.40
2018-02-21T05:49:44.120Z,-5.30
2018-02-21T05:52:10.350Z,-5.40
2018-02-21T05:54:37.317Z,-5.50
2018-02-21T05:57:03.519Z,-5.60
2018-02-21T05:59:30.472Z,-5.40
2018-02-21T06:01:57.423Z,-5.30
2018-02-21T06:04:23.653Z,-5.40
2018-02-21T06:06:49.889Z,-5.20
2018-02-21T06:09:16.085Z,-5.20
2018-02-21T06:11:43.061Z,-5.10
2018-02-21T06:14:09.248Z,-5.20
2018-02-21T06:16:35.467Z,-5.10
2018-02-21T06:19:01.685Z,-5.00
2018-02-21T06:21:27.888Z,-5.00
2018-02-21T06:23:54.112Z,-5.00
2018-02-21T06:26:20.333Z,-5.00
2018-02-21T06:28:47.336Z,-4.70
2018-02-21T06:31:13.553Z,-4.70
2018-02-21T06:33:39.776Z,-4.60
2018-02-21T06:36:06.013Z,-4.50
2018-02-21T06:38:32.219Z,-4.50
2018-02-21T06:40:58.425Z,-4.40
2018-02-21T06:43:25.458Z,-4.20
2018-02-21T06:45:51.742Z,-4.20
2018-02-21T06:48:17.962Z,-4.00
2018-02-21T06:50:44.365Z,-3.90
2018-02-21T06:53:11.508Z,-3.70
2018-02-21T06:55:38.631Z,-3.70
2018-02-21T06:58:05.036Z,-3.70
2018-02-21T07:00:31.429Z,-3.50
2018-02-21T07:02:58.625Z,-3.20
2018-02-21T07:05:25.038Z,-3.30
2018-02-21T07:07:51.709Z,-3.10
2018-02-21T07:10:18.114Z,-3.00
2018-02-21T07:12:44.548Z,-3.00
2018-02-21T07:15:11.001Z,-3.00
2018-02-21T07:17:37.401Z,-3.10
2018-02-21T07:20:03.856Z,-3.10
2018-02-21T07:22:30.274Z,-3.20
2018-02-21T07:24:56.669Z,-3.20
2018-02-21T07:27:23.080Z,-3.30
2018-02-21T07:29:49.578Z,-3.30
2018-02-21T07:32:15.981Z,-3.30
2018-02-21T07:34:42.419Z,-3.30
2018-02-21T07:37:08.824Z,-3.30
2018-02-21T07:39:35.226Z,-3.30
2018-02-21T07:42:01.653Z,-3.30
2018-02-21T07:44:28.023Z,-3.10
2018-02-21T07:46:54.413Z,-2.90
2018-02-21T07:49:20.799Z,-2.80
2018-02-21T07:51:47.213Z,-2.60
2018-02-21T07:54:13.662Z,-2.50
2018-02-21T07:56:40.065Z,-2.40
2018-02-21T07:59:06.489Z,-2.30
2018-02-21T08:01:32.909Z,-2.00
2018-02-21T08:04:00.058Z,-1.80
2018-02-21T08:06:27.198Z,-1.60
2018-02-21T08:08:54.326Z,-1.40
2018-02-21T08:11:20.725Z,-1.50
2018-02-21T08:13:47.097Z,-1.30
2018-02-21T08:16:13.506Z,-1.10
2018-02-21T08:18:39.911Z,-1.00
2018-02-21T08:21:06.336Z,-1.10
2018-02-21T08:23:36.212Z,-0.90
2018-02-21T08:26:03.376Z,-0.70
2018-02-21T08:28:29.801Z,-0.70
2018-02-21T08:30:56.210Z,-0.50
2018-02-21T08:33:22.631Z,-0.40
2018-02-21T08:35:49.129Z,-0.30
2018-02-21T08:38:16.259Z,-0.50
2018-02-21T08:40:42.662Z,-0.60
2018-02-21T08:43:09.074Z,-0.70
2018-02-21T08:45:35.457Z,-0.90
2018-02-21T08:48:01.895Z,-1.30
2018-02-21T08:50:28.290Z,-1.40
2018-02-21T08:52:54.726Z,-1.10
2018-02-21T08:55:21.143Z,-0.90
2018-02-21T08:57:47.534Z,-0.50
2018-02-21T09:00:13.946Z,-0.60
2018-02-21T09:02:40.341Z,-0.50
2018-02-21T09:05:07.506Z,-0.20
2018-02-21T09:07:34.108Z,-0.20
2018-02-21T09:10:00.529Z,-0.10
2018-02-21T09:12:27.381Z,0.10
2018-02-21T09:14:53.942Z,0.10
2018-02-21T09:17:21.095Z,-0.10
2018-02-21T09:19:48.295Z,0.00
2018-02-21T09:22:14.690Z,-0.10
2018-02-21T09:24:41.102Z,0.20
2018-02-21T09:27:08.223Z,0.40
2018-02-21T09:29:34.662Z,0.30
2018-02-21T09:32:01.074Z,0.60
2018-02-21T09:34:34.465Z,0.60
2018-02-21T09:37:00.895Z,0.70
2018-02-21T09:39:27.300Z,0.50
2018-02-21T09:41:54.466Z,0.60
2018-02-21T09:44:20.866Z,0.50
2018-02-21T09:46:47.254Z,0.70
2018-02-21T09:49:13.650Z,0.80
2018-02-21T09:51:40.779Z,1.10
2018-02-21T09:54:07.184Z,1.00
2018-02-21T09:56:33.554Z,1.20
2018-02-21T09:59:00.705Z,1.20
2018-02-21T10:01:27.089Z,1.20
2018-02-21T10:03:53.514Z,1.30
2018-02-21T10:06:19.897Z,0.50
2018-02-21T10:08:46.322Z,0.20
2018-02-21T10:11:12.811Z,-0.20
2018-02-21T10:13:39.195Z,-0.20
2018-02-21T10:16:05.609Z,0.00
2018-02-21T10:18:31.994Z,0.20
2018-02-21T10:20:59.146Z,0.40
2018-02-21T10:23:26.309Z,0.50
2018-02-21T10:25:52.681Z,0.50
2018-02-21T10:28:19.082Z,0.70
2018-02-21T10:30:52.552Z,0.80
2018-02-21T10:33:19.802Z,0.40
2018-02-21T10:35:46.249Z,0.40
2018-02-21T10:38:13.442Z,-0.10
2018-02-21T10:40:39.905Z,-0.10
2018-02-21T10:43:06.296Z,0.00
2018-02-21T10:45:32.728Z,0.00
2018-02-21T10:47:59.113Z,0.10
2018-02-21T10:50:25.528Z,0.20
2018-02-21T10:52:51.906Z,0.20
2018-02-21T10:55:19.039Z,0.50
2018-02-21T10:57:45.454Z,0.40
2018-02-21T11:00:11.871Z,0.80
2018-02-21T11:02:38.314Z,1.00
2018-02-21T11:05:04.711Z,0.70
2018-02-21T11:07:31.123Z,0.50
2018-02-21T11:09:58.263Z,1.30
2018-02-21T11:12:24.653Z,1.30
2018-02-21T11:14:51.127Z,1.20
2018-02-21T11:17:17.518Z,1.30
2018-02-21T11:19:43.935Z,1.20
2018-02-21T11:22:10.343Z,1.20
2018-02-21T11:24:37.483Z,1.40
2018-02-21T11:27:03.908Z,1.30
2018-02-21T11:29:30.398Z,1.10
2018-02-21T11:31:56.815Z,1.00
2018-02-21T11:34:23.958Z,1.10
2018-02-21T11:36:50.355Z,1.10
2018-02-21T11:39:16.777Z,0.80
2018-02-21T11:41:43.189Z,0.50
2018-02-21T11:44:09.590Z,0.30
2018-02-21T11:46:36.732Z,0.50
2018-02-21T11:49:03.123Z,0.40
2018-02-21T11:51:29.532Z,0.30
2018-02-21T11:53:55.918Z,0.50
2018-02-21T11:56:22.320Z,0.70
2018-02-21T11:58:48.726Z,0.80
2018-02-21T12:01:15.105Z,0.70
2018-02-21T12:03:41.507Z,0.70
2018-02-21T12:06:07.920Z,1.00
2018-02-21T12:08:35.054Z,0.90
2018-02-21T12:11:01.437Z,0.90
2018-02-21T12:13:27.842Z,1.00
2018-02-21T12:15:56.998Z,1.30
2018-02-21T12:18:25.086Z,1.20
2018-02-21T12:20:54.434Z,1.50
2018-02-21T12:23:23.214Z,1.40
2018-02-21T12:25:52.132Z,1.50
2018-02-21T12:28:21.215Z,1.50
2018-02-21T12:30:50.052Z,1.40
2018-02-21T12:33:18.895Z,1.30
2018-02-21T12:35:47.791Z,1.30
2018-02-21T12:38:16.200Z,1.40
2018-02-21T12:40:51.080Z,1.60
2018-02-21T12:43:22.303Z,2.00
2018-02-21T12:45:51.906Z,2.20
2018-02-21T12:48:18.309Z,2.10
2018-02-21T12:50:44.756Z,2.40
2018-02-21T12:53:11.142Z,2.90
2018-02-21T12:55:38.284Z,3.10
2018-02-21T12:58:05.399Z,3.00
2018-02-21T13:00:31.800Z,3.00
2018-02-21T13:02:58.198Z,3.00
2018-02-21T13:05:25.338Z,3.20
2018-02-21T13:07:51.739Z,3.10
2018-02-21T13:10:18.127Z,3.70
2018-02-21T13:12:45.298Z,4.30
2018-02-21T13:15:11.702Z,4.30
2018-02-21T13:17:38.106Z,3.70
2018-02-21T13:20:04.486Z,2.80
2018-02-21T13:22:31.631Z,3.20
2018-02-21T13:24:58.793Z,3.40
2018-02-21T13:27:25.171Z,3.40
2018-02-21T13:29:51.576Z,3.50
2018-02-21T13:32:17.953Z,3.20
2018-02-21T13:34:44.371Z,3.10
2018-02-21T13:37:10.770Z,2.90
2018-02-21T13:39:37.175Z,2.90
2018-02-21T13:42:03.642Z,2.80
2018-02-21T13:44:30.062Z,3.00
2018-02-21T13:46:57.250Z,3.00
2018-02-21T13:49:23.655Z,3.00
2018-02-21T13:51:50.045Z,3.00
2018-02-21T13:54:16.469Z,2.90
2018-02-21T13:56:42.881Z,2.70
2018-02-21T13:59:09.280Z,2.40
2018-02-21T14:01:36.420Z,1.80
2018-02-21T14:04:03.602Z,1.90
2018-02-21T14:06:30.009Z,1.80
2018-02-21T14:08:57.140Z,2.30
2018-02-21T14:11:23.576Z,2.30
2018-02-21T14:13:49.958Z,2.50
2018-02-21T14:16:16.351Z,2.60
2018-02-21T14:18:42.754Z,2.50
2018-02-21T14:21:09.113Z,2.30
2018-02-21T14:23:35.336Z,2.00
2018-02-21T14:26:01.722Z,1.80
2018-02-21T14:28:28.120Z,1.60
2018-02-21T14:30:55.284Z,1.60
2018-02-21T14:33:22.457Z,1.70
2018-02-21T14:35:49.023Z,1.60
2018-02-21T14:38:15.441Z,1.50
2018-02-21T14:40:41.938Z,1.20
2018-02-21T14:43:09.101Z,1.00
2018-02-21T14:45:36.241Z,0.70
2018-02-21T14:48:03.412Z,0.50
2018-02-21T14:50:29.796Z,0.50
2018-02-21T14:52:56.204Z,0.40
2018-02-21T14:55:23.075Z,0.30
2018-02-21T14:57:49.514Z,0.10
2018-02-21T15:00:15.923Z,0.00
2018-02-21T15:02:42.298Z,0.00
2018-02-21T15:05:08.699Z,0.00
2018-02-21T15:07:35.089Z,0.00
2018-02-21T15:10:02.243Z,-0.20
2018-02-21T15:12:29.386Z,-0.30
2018-02-21T15:14:57.708Z,-0.30
2018-02-21T15:17:24.658Z,-0.40
2018-02-21T15:19:51.192Z,-0.40
2018-02-21T15:22:17.591Z,-0.40
2018-02-21T15:24:44.735Z,-0.20
2018-02-21T15:27:11.862Z,-0.20
2018-02-21T15:29:38.302Z,-0.30
2018-02-21T15:32:04.698Z,-0.30
2018-02-21T15:34:31.121Z,-0.40
2018-02-21T15:36:57.543Z,-0.50
2018-02-21T15:39:24.009Z,-0.70
2018-02-21T15:41:50.429Z,-0.70
2018-02-21T15:44:16.988Z,-0.80
2018-02-21T15:46:43.743Z,-0.70
2018-02-21T15:49:10.161Z,-0.60
2018-02-21T15:51:36.590Z,-0.30
2018-02-21T15:54:03.054Z,-0.10
2018-02-21T15:56:30.297Z,0.10
2018-02-21T15:58:56.769Z,0.00
2018-02-21T16:01:23.944Z,0.00
2018-02-21T16:03:50.420Z,0.00
2018-02-21T16:06:16.847Z,0.00
2018-02-21T16:08:43.299Z,0.00
2018-02-21T16:11:09.722Z,0.10
2018-02-21T16:13:36.158Z,0.10
2018-02-21T16:16:02.599Z,0.20
2018-02-21T16:18:29.070Z,0.10
2018-02-21T16:20:56.379Z,0.00
2018-02-21T16:23:22.815Z,-0.10
2018-02-21T16:25:49.189Z,-0.10
2018-02-21T16:28:16.325Z,-0.10
2018-02-21T16:30:43.453Z,-0.10
2018-02-21T16:33:09.841Z,-0.20
2018-02-21T16:35:36.248Z,-0.20
2018-02-21T16:38:03.443Z,-0.30
2018-02-21T16:40:29.872Z,-0.40
2018-02-21T16:42:56.430Z,-0.40
2018-02-21T16:45:23.033Z,-0.50
2018-02-21T16:47:49.675Z,-0.60
2018-02-21T16:50:16.251Z,-0.70
2018-02-21T16:52:42.842Z,-0.70
2018-02-21T16:55:10.244Z,-0.80
2018-02-21T16:57:36.983Z,-0.90
2018-02-21T17:00:03.474Z,-0.90
2018-02-21T17:02:30.875Z,-1.10
2018-02-21T17:04:57.477Z,-1.10
2018-02-21T17:07:24.170Z,-1.20
2018-02-21T17:09:51.656Z,-1.20
2018-02-21T17:12:18.989Z,-1.20
2018-02-21T17:14:45.707Z,-1.30
2018-02-21T17:17:12.348Z,-1.20
2018-02-21T17:19:38.949Z,-1.20
2018-02-21T17:22:05.735Z,-1.20
2018-02-21T17:24:32.446Z,-1.20
2018-02-21T17:26:59.091Z,-1.20
2018-02-21T17:29:25.865Z,-1.20
2018-02-21T17:31:52.550Z,-1.20
2018-02-21T17:34:19.792Z,-1.20
2018-02-21T17:36:46.497Z,-1.20
2018-02-21T17:39:13.099Z,-1.10
2018-02-21T17:41:39.758Z,-1.10
2018-02-21T17:44:06.515Z,-1.10
2018-02-21T17:46:32.986Z,-1.10
2018-02-21T17:48:59.400Z,-1.00
2018-02-21T17:51:25.793Z,-1.00
2018-02-21T17:53:52.234Z,-0.90
2018-02-21T17:56:18.660Z,-1.00
2018-02-21T17:58:45.120Z,-1.00
2018-02-21T18:01:11.741Z,-1.00
2018-02-21T18:03:40.307Z,-1.10
2018-02-21T18:06:10.117Z,-1.10
2018-02-21T18:08:39.539Z,-1.00
2018-02-21T18:11:08.184Z,-1.10
2018-02-21T18:13:37.631Z,-0.90
2018-02-21T18:16:04.085Z,-1.00
2018-02-21T18:18:30.528Z,-0.90
2018-02-21T18:20:56.925Z,-0.90
2018-02-21T18:23:23.363Z,-0.90
2018-02-21T18:25:49.803Z,-0.90
2018-02-21T18:28:16.217Z,-0.90
2018-02-21T18:30:43.582Z,-1.00
2018-02-21T18:33:10.699Z,-1.00
2018-02-21T18:35:39.106Z,-1.10
2018-02-21T18:38:06.323Z,-1.10
2018-02-21T18:40:32.836Z,-1.20
2018-02-21T18:42:59.249Z,-1.10
2018-02-21T18:45:25.632Z,-1.20
2018-02-21T18:47:52.065Z,-1.20
2018-02-21T18:50:18.454Z,-1.20
2018-02-21T18:52:44.826Z,-1.20
2018-02-21T18:55:11.230Z,-1.30
2018-02-21T18:57:37.642Z,-1.30
2018-02-21T19:00:04.877Z,-1.40
2018-02-21T19:02:32.074Z,-1.40
2018-02-21T19:04:58.467Z,-1.50
2018-02-21T19:07:25.606Z,-1.40
2018-02-21T19:09:52.011Z,-1.50
2018-02-21T19:12:18.407Z,-1.40
2018-02-21T19:14:44.819Z,-1.40
2018-02-21T19:17:11.991Z,-1.40
2018-02-21T19:19:38.468Z,-1.40
2018-02-21T19:22:04.897Z,-1.40
2018-02-21T19:24:31.290Z,-1.30
2018-02-21T19:26:58.475Z,-1.40
2018-02-21T19:29:24.903Z,-1.40
2018-02-21T19:31:51.330Z,-1.40
2018-02-21T19:34:17.742Z,-1.40
2018-02-21T19:36:45.135Z,-1.50
2018-02-21T19:39:11.915Z,-1.50
2018-02-21T19:41:38.403Z,-1.40
2018-02-21T19:44:09.315Z,-1.40
2018-02-21T19:46:36.485Z,-1.40
2018-02-21T19:49:02.927Z,-1.50
2018-02-21T19:51:29.376Z,-1.40
2018-02-21T19:53:55.865Z,-1.50
2018-02-21T19:56:22.998Z,-1.50
2018-02-21T19:58:49.422Z,-1.60
2018-02-21T20:01:15.860Z,-1.60
2018-02-21T20:03:42.346Z,-1.60
2018-02-21T20:06:08.808Z,-1.60
2018-02-21T20:08:35.232Z,-1.70
2018-02-21T20:11:01.653Z,-1.70
2018-02-21T20:13:28.030Z,-1.80
2018-02-21T20:15:54.463Z,-1.80
2018-02-21T20:18:20.881Z,-2.00
2018-02-21T20:20:47.263Z,-1.90
2018-02-21T20:23:14.408Z,-2.00
2018-02-21T20:25:41.528Z,-2.00
2018-02-21T20:28:07.998Z,-2.00
2018-02-21T20:30:35.143Z,-2.00
2018-02-21T20:33:01.519Z,-2.10
2018-02-21T20:35:27.951Z,-2.10
2018-02-21T20:37:54.354Z,-2.10
2018-02-21T20:40:21.526Z,-2.30
2018-02-21T20:42:47.925Z,-2.30
2018-02-21T20:45:15.086Z,-2.40
2018-02-21T20:47:42.330Z,-2.50
2018-02-21T20:50:08.807Z,-2.50
2018-02-21T20:52:35.250Z,-2.60
2018-02-21T20:55:01.679Z,-2.60
2018-02-21T20:57:28.058Z,-2.60
2018-02-21T20:59:54.465Z,-2.60
2018-02-21T21:02:20.898Z,-2.50
2018-02-21T21:04:47.326Z,-2.60
2018-02-21T21:07:13.765Z,-2.70
2018-02-21T21:09:40.202Z,-2.70
2018-02-21T21:12:06.598Z,-2.80
2018-02-21T21:14:33.723Z,-2.70
2018-02-21T21:17:00.134Z,-2.80
2018-02-21T21:19:26.543Z,-2.70
2018-02-21T21:21:52.922Z,-2.70
2018-02-21T21:24:19.381Z,-2.70
2018-02-21T21:26:46.501Z,-2.70
2018-02-21T21:29:12.905Z,-2.80
2018-02-21T21:31:39.322Z,-2.80
2018-02-21T21:34:05.718Z,-2.70
2018-02-21T21:36:32.164Z,-2.70
2018-02-21T21:38:59.317Z,-2.60
2018-02-21T21:41:26.494Z,-2.60
2018-02-21T21:43:52.902Z,-2.60
2018-02-21T21:46:20.050Z,-2.60
2018-02-21T21:48:47.223Z,-2.60
2018-02-21T21:51:13.608Z,-2.70
2018-02-21T21:53:40.044Z,-2.70
2018-02-21T21:56:06.485Z,-2.70
2018-02-21T21:58:32.868Z,-2.70
2018-02-21T22:00:59.278Z,-2.80
2018-02-21T22:03:26.427Z,-2.70
2018-02-21T22:05:53.587Z,-2.80
2018-02-21T22:08:20.737Z,-2.80
2018-02-21T22:10:47.142Z,-2.80
2018-02-21T22:13:13.539Z,-2.90
2018-02-21T22:15:39.921Z,-2.80
2018-02-21T22:18:06.322Z,-2.80
2018-02-21T22:20:32.761Z,-2.90
2018-02-21T22:22:59.154Z,-2.90
2018-02-21T22:25:25.562Z,-2.80
2018-02-21T22:27:51.944Z,-2.90
2018-02-21T22:30:18.338Z,-2.90
2018-02-21T22:32:45.491Z,-2.90
2018-02-21T22:35:12.605Z,-3.00
2018-02-21T22:37:39.007Z,-3.00
2018-02-21T22:40:05.382Z,-2.90
2018-02-21T22:42:31.778Z,-2.90
2018-02-21T22:44:58.165Z,-3.00
2018-02-21T22:47:24.552Z,-2.90
2018-02-21T22:49:50.954Z,-3.00
2018-02-21T22:52:18.113Z,-2.90
2018-02-21T22:54:44.517Z,-2.90
2018-02-21T22:57:11.659Z,-2.80
2018-02-21T22:59:38.069Z,-2.90
2018-02-21T23:02:04.454Z,-2.80
2018-02-21T23:04:31.594Z,-3.00
2018-02-21T23:06:58.009Z,-3.00
2018-02-21T23:09:24.397Z,-3.10
2018-02-21T23:11:50.830Z,-3.20
2018-02-21T23:14:17.206Z,-3.20
2018-02-21T23:16:43.616Z,-3.10
2018-02-21T23:19:10.014Z,-3.20
2018-02-21T23:21:36.389Z,-3.20
2018-02-21T23:24:02.804Z,-3.10
2018-02-21T23:26:29.181Z,-3.10
2018-02-21T23:28:55.590Z,-3.20
2018-02-21T23:31:21.992Z,-3.40
2018-02-21T23:33:48.377Z,-3.60
2018-02-21T23:36:14.815Z,-3.80
2018-02-21T23:38:41.222Z,-3.80
2018-02-21T23:41:07.614Z,-3.90
2018-02-21T23:43:34.042Z,-4.00
2018-02-21T23:46:01.160Z,-4.00
2018-02-21T23:48:27.591Z,-4.10
2018-02-21T23:50:54.009Z,-4.10
2018-02-21T23:53:20.387Z,-4.10
2018-02-21T23:55:46.779Z,-4.20
2018-02-21T23:58:13.159Z,-4.30
